Detall de PIREP

Printer-friendly versionPDF version

[2014/01/25 18:49:00]
Flight IATA:CT1001
Pilot Number:042
Company ICAO:CAT
Aircraft Type:MD11/E
PAX:0
Aircraft Registration:CARGO
Departing Airport: LEBL
Destination Airport: GCXO
Alternate Airport:GCLP
Online: VATSIM
Route:LOTOS UM985 PIMOS UN869 RUSIK
Flight Level:F350
No Slew and time accel
No pause
Crash detect
Detect pilot in Cockpit between each 30 and 45 minutes
18:49 Zero fuel Weight: 393890 Lbs, Fuel Weight: 85322 Lbs
18:49 VATSIM:LEBL 251830Z 22006KT 190V250 9999 FEW020 12/10 Q1018 NOSIG
18:49 VATSIM:GCXO 251830Z 36008KT 320V040 9999 FEW012 BKN020 12/10 Q1027 NOSIG
18:49 VOICE CATALONIAN/REAL OPS 2014
18:55 Parking Brakes off
19:21 Take-off
19:21 Take off Weight: 475307 Lbs
19:21 Wind: 260º @ 005 Knots Heading: 245º
19:21 POS N41º 17´ 07´´ E002º 05´ 01´´
19:21 Gear Up: 167 Knots
19:21 Flaps:6 at 167 Knots
19:21 Flaps:5 at 152 Knots
19:21 Flaps:4 at 154 Knots
19:21 Flaps:3 at 155 Knots
19:21 Flaps:2 at 159 Knots
19:21 Flaps:1 at 160 Knots
19:23 Flaps:0 at 231 Knots
19:36 Wind:292º@030 Knots Heading: 230º Ground Speed: 462 Knots Altitude 31003 ft
19:39 TOC
19:39 Fuel Weight: 70707 Lb
19:51 Wind:297º@040 Knots Heading: 237º Ground Speed: 454 Knots Altitude 35282 ft
20:06 Wind:281º@013 Knots Heading: 227º Ground Speed: 461 Knots Altitude 35324 ft
20:21 Wind:295º@061 Knots Heading: 219º Ground Speed: 450 Knots Altitude 37322 ft
20:36 Wind:276º@021 Knots Heading: 218º Ground Speed: 448 Knots Altitude 37398 ft
20:51 Wind:020º@018 Knots Heading: 214º Ground Speed: 477 Knots Altitude 37417 ft
21:06 Wind:075º@013 Knots Heading: 208º Ground Speed: 468 Knots Altitude 37372 ft
21:21 Wind:046º@002 Knots Heading: 245º Ground Speed: 444 Knots Altitude 37290 ft
21:36 Wind:018º@056 Knots Heading: 249º Ground Speed: 493 Knots Altitude 37293 ft
21:51 Wind:049º@095 Knots Heading: 273º Ground Speed: 529 Knots Altitude 37342 ft
21:51 TOD
21:51 Fuel Weight: 36977 Lb
22:01 Flaps:1 at 319 Knots
22:01 Flaps:0 at 316 Knots
22:02 Flaps:1 at 276 Knots
22:03 Flaps:2 at 246 Knots
22:03 Flaps:3 at 245 Knots
22:06 Wind:038º@022 Knots Heading: 301º Ground Speed: 272 Knots Altitude 7240 ft
22:07 Flaps:4 at 226 Knots
22:07 Flaps:3 at 226 Knots
22:07 Flaps:4 at 225 Knots
22:07 Flaps:5 at 222 Knots
22:07 Flaps:6 at 213 Knots
22:07 Flaps:5 at 212 Knots
22:08 Flaps:6 at 211 Knots
22:09 Flaps:5 at 211 Knots
22:09 Flaps:6 at 212 Knots
22:09 Gear Down: 209 Knots
22:09 Flaps:7 at 205 Knots
22:09 Flaps:6 at 203 Knots
22:09 Flaps:7 at 191 Knots
22:09 Flaps:8 at 177 Knots
22:09 Flaps:7 at 176 Knots
22:10 Flaps:8 at 173 Knots
22:12 TouchDown:Rate -422 ft/min Speed: 151 Knots
22:12 VATSIM:GCXO 252130Z 02005G17KT 320V080 8000 DZ FEW006 BKN014 12/11 Q1028 NOSIG
22:12 Land
22:12 Wind:020º@007 Knots
22:12 Heading: 293º
22:12 Flight Duration: 02:51
22:12 Landing Weight: 427325 Lbs
22:12 POS N28º 29´ 11´´ W016º 21´ 09´´
22:15 Parking brakes on
22:15 Block to Block Duration: 03:20
22:15 Final Fuel: 32991 Lbls
22:15 Spent Fuel: 52330 Lbls
22:15 Flight Length: 1265 NM
22:15 TOD Land Length: 124 NM

Exportar CSV

Powered by Drupal - Modified by Danger4k